sensor_id;sensor_type;location;lat;lon;timestamp;P1;durP1;ratioP1;P2;durP2;ratioP2
51288;SDS011;37372;52.294;5.152;2023-05-09T00:01:24;70.25;;;35.10;;
51288;SDS011;37372;52.294;5.152;2023-05-09T00:03:51;75.75;;;36.47;;
51288;SDS011;37372;52.294;5.152;2023-05-09T00:06:17;72.63;;;33.90;;
51288;SDS011;37372;52.294;5.152;2023-05-09T00:08:43;71.47;;;33.88;;
51288;SDS011;37372;52.294;5.152;2023-05-09T00:11:09;68.88;;;34.40;;
51288;SDS011;37372;52.294;5.152;2023-05-09T00:13:35;68.45;;;32.40;;
51288;SDS011;37372;52.294;5.152;2023-05-09T00:16:02;68.55;;;36.13;;
51288;SDS011;37372;52.294;5.152;2023-05-09T00:18:30;69.35;;;33.28;;
51288;SDS011;37372;52.294;5.152;2023-05-09T00:21:01;61.08;;;31.75;;
51288;SDS011;37372;52.294;5.152;2023-05-09T00:23:37;74.60;;;35.67;;
51288;SDS011;37372;52.294;5.152;2023-05-09T00:26:03;64.60;;;34.67;;
51288;SDS011;37372;52.294;5.152;2023-05-09T00:28:29;62.97;;;30.45;;
51288;SDS011;37372;52.294;5.152;2023-05-09T00:30:55;68.43;;;33.88;;
51288;SDS011;37372;52.294;5.152;2023-05-09T00:33:20;66.95;;;33.67;;
51288;SDS011;37372;52.294;5.152;2023-05-09T00:35:46;65.55;;;32.85;;
51288;SDS011;37372;52.294;5.152;2023-05-09T00:38:11;71.55;;;35.85;;
51288;SDS011;37372;52.294;5.152;2023-05-09T00:40:37;71.10;;;35.70;;
51288;SDS011;37372;52.294;5.152;2023-05-09T00:43:03;67.80;;;35.03;;
51288;SDS011;37372;52.294;5.152;2023-05-09T00:45:29;68.80;;;35.55;;
51288;SDS011;37372;52.294;5.152;2023-05-09T00:47:55;65.15;;;31.85;;
51288;SDS011;37372;52.294;5.152;2023-05-09T00:50:21;75.35;;;35.45;;
51288;SDS011;37372;52.294;5.152;2023-05-09T00:52:47;71.13;;;35.95;;
51288;SDS011;37372;52.294;5.152;2023-05-09T00:55:17;72.80;;;34.55;;
51288;SDS011;37372;52.294;5.152;2023-05-09T00:57:43;69.95;;;34.92;;
51288;SDS011;37372;52.294;5.152;2023-05-09T01:00:10;77.82;;;35.80;;
51288;SDS011;37372;52.294;5.152;2023-05-09T01:02:44;70.32;;;35.38;;
51288;SDS011;37372;52.294;5.152;2023-05-09T01:05:14;62.05;;;34.15;;
51288;SDS011;37372;52.294;5.152;2023-05-09T01:10:39;67.43;;;34.15;;
51288;SDS011;37372;52.294;5.152;2023-05-09T01:18:51;73.75;;;36.50;;
51288;SDS011;37372;52.294;5.152;2023-05-09T01:21:34;78.55;;;38.15;;
51288;SDS011;37372;52.294;5.152;2023-05-09T01:24:12;72.30;;;36.53;;
51288;SDS011;37372;52.294;5.152;2023-05-09T01:30:02;82.72;;;37.88;;
51288;SDS011;37372;52.294;5.152;2023-05-09T01:32:29;75.82;;;36.78;;
51288;SDS011;37372;52.294;5.152;2023-05-09T01:35:00;75.70;;;35.78;;
51288;SDS011;37372;52.294;5.152;2023-05-09T01:37:32;75.32;;;37.25;;
51288;SDS011;37372;52.294;5.152;2023-05-09T01:40:05;73.35;;;36.42;;
51288;SDS011;37372;52.294;5.152;2023-05-09T01:42:46;79.38;;;38.85;;
51288;SDS011;37372;52.294;5.152;2023-05-09T01:45:18;72.78;;;35.60;;
51288;SDS011;37372;52.294;5.152;2023-05-09T01:47:47;72.47;;;37.28;;
51288;SDS011;37372;52.294;5.152;2023-05-09T01:50:19;74.10;;;35.63;;
51288;SDS011;37372;52.294;5.152;2023-05-09T01:52:47;79.00;;;36.47;;
51288;SDS011;37372;52.294;5.152;2023-05-09T01:55:22;78.10;;;39.13;;
51288;SDS011;37372;52.294;5.152;2023-05-09T01:57:57;79.40;;;35.50;;
51288;SDS011;37372;52.294;5.152;2023-05-09T02:00:23;79.88;;;37.90;;
51288;SDS011;37372;52.294;5.152;2023-05-09T02:02:52;71.93;;;34.95;;
51288;SDS011;37372;52.294;5.152;2023-05-09T02:05:20;82.03;;;36.00;;
51288;SDS011;37372;52.294;5.152;2023-05-09T02:07:51;72.63;;;35.72;;
51288;SDS011;37372;52.294;5.152;2023-05-09T02:10:21;89.07;;;40.15;;
51288;SDS011;37372;52.294;5.152;2023-05-09T02:12:51;83.05;;;38.13;;
51288;SDS011;37372;52.294;5.152;2023-05-09T02:15:21;83.03;;;38.40;;
51288;SDS011;37372;52.294;5.152;2023-05-09T02:17:49;83.35;;;37.60;;
51288;SDS011;37372;52.294;5.152;2023-05-09T02:20:16;77.10;;;37.50;;
51288;SDS011;37372;52.294;5.152;2023-05-09T02:22:47;77.28;;;35.03;;
51288;SDS011;37372;52.294;5.152;2023-05-09T02:25:12;85.95;;;37.67;;
51288;SDS011;37372;52.294;5.152;2023-05-09T02:27:45;79.90;;;36.03;;
51288;SDS011;37372;52.294;5.152;2023-05-09T02:30:13;75.65;;;36.22;;
51288;SDS011;37372;52.294;5.152;2023-05-09T02:32:58;78.85;;;36.85;;
51288;SDS011;37372;52.294;5.152;2023-05-09T02:35:29;84.22;;;38.25;;
51288;SDS011;37372;52.294;5.152;2023-05-09T02:38:11;82.28;;;37.00;;
51288;SDS011;37372;52.294;5.152;2023-05-09T02:40:41;78.25;;;35.72;;
51288;SDS011;37372;52.294;5.152;2023-05-09T02:43:08;75.00;;;35.42;;
51288;SDS011;37372;52.294;5.152;2023-05-09T02:45:37;82.45;;;36.45;;
51288;SDS011;37372;52.294;5.152;2023-05-09T02:48:03;73.32;;;35.58;;
51288;SDS011;37372;52.294;5.152;2023-05-09T02:50:29;78.63;;;37.33;;
51288;SDS011;37372;52.294;5.152;2023-05-09T02:52:55;78.47;;;35.67;;
51288;SDS011;37372;52.294;5.152;2023-05-09T02:55:21;78.50;;;36.38;;
51288;SDS011;37372;52.294;5.152;2023-05-09T02:58:08;79.00;;;36.90;;
51288;SDS011;37372;52.294;5.152;2023-05-09T03:00:33;79.05;;;37.53;;
51288;SDS011;37372;52.294;5.152;2023-05-09T03:03:02;78.70;;;37.05;;
51288;SDS011;37372;52.294;5.152;2023-05-09T03:05:30;71.93;;;37.17;;
51288;SDS011;37372;52.294;5.152;2023-05-09T03:08:02;87.90;;;36.55;;
51288;SDS011;37372;52.294;5.152;2023-05-09T03:10:32;85.57;;;37.30;;
51288;SDS011;37372;52.294;5.152;2023-05-09T03:13:02;81.25;;;37.55;;
51288;SDS011;37372;52.294;5.152;2023-05-09T03:15:34;88.25;;;39.65;;
51288;SDS011;37372;52.294;5.152;2023-05-09T03:18:05;82.25;;;36.17;;
51288;SDS011;37372;52.294;5.152;2023-05-09T03:20:33;84.95;;;37.40;;
51288;SDS011;37372;52.294;5.152;2023-05-09T03:23:03;82.28;;;37.25;;
51288;SDS011;37372;52.294;5.152;2023-05-09T03:25:50;84.32;;;37.63;;
51288;SDS011;37372;52.294;5.152;2023-05-09T03:28:15;77.28;;;36.05;;
51288;SDS011;37372;52.294;5.152;2023-05-09T03:30:46;81.88;;;37.90;;
51288;SDS011;37372;52.294;5.152;2023-05-09T03:33:12;75.70;;;35.60;;
51288;SDS011;37372;52.294;5.152;2023-05-09T03:35:37;87.90;;;38.97;;
51288;SDS011;37372;52.294;5.152;2023-05-09T03:38:03;81.32;;;35.83;;
51288;SDS011;37372;52.294;5.152;2023-05-09T03:40:30;80.72;;;36.42;;
51288;SDS011;37372;52.294;5.152;2023-05-09T03:43:02;83.82;;;37.88;;
51288;SDS011;37372;52.294;5.152;2023-05-09T03:45:28;88.53;;;35.90;;
51288;SDS011;37372;52.294;5.152;2023-05-09T03:47:53;78.65;;;37.63;;
51288;SDS011;37372;52.294;5.152;2023-05-09T03:50:18;78.53;;;34.83;;
51288;SDS011;37372;52.294;5.152;2023-05-09T03:52:44;75.85;;;35.95;;
51288;SDS011;37372;52.294;5.152;2023-05-09T03:55:10;79.22;;;35.53;;
51288;SDS011;37372;52.294;5.152;2023-05-09T03:57:36;78.40;;;35.55;;
51288;SDS011;37372;52.294;5.152;2023-05-09T04:00:02;81.13;;;37.03;;
51288;SDS011;37372;52.294;5.152;2023-05-09T04:02:31;78.50;;;35.95;;
51288;SDS011;37372;52.294;5.152;2023-05-09T04:05:00;78.50;;;37.40;;
51288;SDS011;37372;52.294;5.152;2023-05-09T04:07:26;73.13;;;34.42;;
51288;SDS011;37372;52.294;5.152;2023-05-09T04:09:56;72.40;;;33.50;;
51288;SDS011;37372;52.294;5.152;2023-05-09T04:12:23;73.15;;;34.53;;
51288;SDS011;37372;52.294;5.152;2023-05-09T04:14:48;72.60;;;34.10;;
51288;SDS011;37372;52.294;5.152;2023-05-09T04:17:15;73.50;;;34.65;;
51288;SDS011;37372;52.294;5.152;2023-05-09T04:19:45;70.38;;;33.40;;
51288;SDS011;37372;52.294;5.152;2023-05-09T04:22:11;71.43;;;33.58;;
51288;SDS011;37372;52.294;5.152;2023-05-09T04:24:43;73.72;;;34.55;;
51288;SDS011;37372;52.294;5.152;2023-05-09T04:27:09;65.95;;;33.90;;
51288;SDS011;37372;52.294;5.152;2023-05-09T04:29:35;64.75;;;32.60;;
51288;SDS011;37372;52.294;5.152;2023-05-09T04:32:00;67.03;;;31.90;;
51288;SDS011;37372;52.294;5.152;2023-05-09T04:34:32;68.22;;;32.60;;
51288;SDS011;37372;52.294;5.152;2023-05-09T04:36:57;67.03;;;33.40;;
51288;SDS011;37372;52.294;5.152;2023-05-09T04:39:23;57.45;;;30.10;;
51288;SDS011;37372;52.294;5.152;2023-05-09T04:41:48;61.17;;;30.73;;
51288;SDS011;37372;52.294;5.152;2023-05-09T04:44:14;61.13;;;30.38;;
51288;SDS011;37372;52.294;5.152;2023-05-09T04:46:40;57.63;;;30.45;;
51288;SDS011;37372;52.294;5.152;2023-05-09T04:49:05;60.95;;;28.85;;
51288;SDS011;37372;52.294;5.152;2023-05-09T04:51:31;61.55;;;29.92;;
51288;SDS011;37372;52.294;5.152;2023-05-09T04:54:00;56.55;;;28.40;;
51288;SDS011;37372;52.294;5.152;2023-05-09T04:56:26;50.55;;;26.10;;
51288;SDS011;37372;52.294;5.152;2023-05-09T04:58:54;53.65;;;27.42;;
51288;SDS011;37372;52.294;5.152;2023-05-09T05:01:20;58.00;;;30.02;;
51288;SDS011;37372;52.294;5.152;2023-05-09T05:03:45;48.75;;;28.33;;
51288;SDS011;37372;52.294;5.152;2023-05-09T05:06:11;45.70;;;25.13;;
51288;SDS011;37372;52.294;5.152;2023-05-09T05:08:40;45.42;;;26.10;;
51288;SDS011;37372;52.294;5.152;2023-05-09T05:11:05;47.72;;;25.38;;
51288;SDS011;37372;52.294;5.152;2023-05-09T05:13:49;47.95;;;25.35;;
51288;SDS011;37372;52.294;5.152;2023-05-09T05:16:18;43.60;;;24.35;;
51288;SDS011;37372;52.294;5.152;2023-05-09T05:18:53;44.05;;;24.00;;
51288;SDS011;37372;52.294;5.152;2023-05-09T05:21:19;39.00;;;24.63;;
51288;SDS011;37372;52.294;5.152;2023-05-09T05:23:45;43.47;;;24.63;;
51288;SDS011;37372;52.294;5.152;2023-05-09T05:26:10;41.70;;;23.95;;
51288;SDS011;37372;52.294;5.152;2023-05-09T05:28:36;45.88;;;25.10;;
51288;SDS011;37372;52.294;5.152;2023-05-09T05:31:07;41.97;;;24.65;;
51288;SDS011;37372;52.294;5.152;2023-05-09T05:33:33;43.22;;;23.63;;
51288;SDS011;37372;52.294;5.152;2023-05-09T05:36:00;36.78;;;22.88;;
51288;SDS011;37372;52.294;5.152;2023-05-09T05:38:26;39.45;;;23.08;;
51288;SDS011;37372;52.294;5.152;2023-05-09T05:40:51;42.28;;;21.58;;
51288;SDS011;37372;52.294;5.152;2023-05-09T05:43:16;34.75;;;20.75;;
51288;SDS011;37372;52.294;5.152;2023-05-09T05:45:42;33.33;;;19.92;;
51288;SDS011;37372;52.294;5.152;2023-05-09T05:48:07;31.85;;;19.42;;
51288;SDS011;37372;52.294;5.152;2023-05-09T05:50:33;35.65;;;20.63;;
51288;SDS011;37372;52.294;5.152;2023-05-09T05:53:00;33.78;;;20.45;;
51288;SDS011;37372;52.294;5.152;2023-05-09T05:55:25;32.13;;;19.27;;
51288;SDS011;37372;52.294;5.152;2023-05-09T05:57:52;35.45;;;18.95;;
51288;SDS011;37372;52.294;5.152;2023-05-09T06:00:26;36.40;;;20.63;;
51288;SDS011;37372;52.294;5.152;2023-05-09T06:02:52;33.35;;;19.10;;
51288;SDS011;37372;52.294;5.152;2023-05-09T06:05:40;34.63;;;19.95;;
51288;SDS011;37372;52.294;5.152;2023-05-09T06:08:21;31.15;;;19.60;;
51288;SDS011;37372;52.294;5.152;2023-05-09T06:10:47;32.20;;;19.90;;
51288;SDS011;37372;52.294;5.152;2023-05-09T06:13:12;31.50;;;19.15;;
51288;SDS011;37372;52.294;5.152;2023-05-09T06:15:37;34.92;;;19.58;;
51288;SDS011;37372;52.294;5.152;2023-05-09T06:18:03;28.27;;;18.73;;
51288;SDS011;37372;52.294;5.152;2023-05-09T06:20:28;34.33;;;19.20;;
51288;SDS011;37372;52.294;5.152;2023-05-09T06:22:54;37.05;;;20.15;;
51288;SDS011;37372;52.294;5.152;2023-05-09T06:25:22;32.67;;;18.35;;
51288;SDS011;37372;52.294;5.152;2023-05-09T06:27:52;36.53;;;20.05;;
51288;SDS011;37372;52.294;5.152;2023-05-09T06:30:17;30.90;;;19.83;;
51288;SDS011;37372;52.294;5.152;2023-05-09T06:32:43;31.25;;;19.00;;
51288;SDS011;37372;52.294;5.152;2023-05-09T06:35:08;36.08;;;21.73;;
51288;SDS011;37372;52.294;5.152;2023-05-09T06:37:34;36.33;;;21.88;;
51288;SDS011;37372;52.294;5.152;2023-05-09T06:40:00;31.38;;;19.48;;
51288;SDS011;37372;52.294;5.152;2023-05-09T06:42:35;30.30;;;18.92;;
51288;SDS011;37372;52.294;5.152;2023-05-09T06:45:10;35.13;;;22.02;;
51288;SDS011;37372;52.294;5.152;2023-05-09T06:47:39;30.95;;;18.80;;
51288;SDS011;37372;52.294;5.152;2023-05-09T06:50:05;34.05;;;20.83;;
51288;SDS011;37372;52.294;5.152;2023-05-09T06:52:34;35.22;;;19.80;;
51288;SDS011;37372;52.294;5.152;2023-05-09T06:55:00;35.38;;;21.73;;
51288;SDS011;37372;52.294;5.152;2023-05-09T06:57:27;35.17;;;20.67;;
51288;SDS011;37372;52.294;5.152;2023-05-09T06:59:52;41.97;;;19.05;;
51288;SDS011;37372;52.294;5.152;2023-05-09T07:02:18;35.10;;;19.05;;
51288;SDS011;37372;52.294;5.152;2023-05-09T07:04:44;35.63;;;21.88;;
51288;SDS011;37372;52.294;5.152;2023-05-09T07:07:11;38.33;;;19.92;;
51288;SDS011;37372;52.294;5.152;2023-05-09T07:09:36;35.63;;;21.90;;
51288;SDS011;37372;52.294;5.152;2023-05-09T07:12:02;34.42;;;20.85;;
51288;SDS011;37372;52.294;5.152;2023-05-09T07:14:28;34.75;;;20.83;;
51288;SDS011;37372;52.294;5.152;2023-05-09T07:16:53;39.13;;;20.50;;
51288;SDS011;37372;52.294;5.152;2023-05-09T07:19:19;32.67;;;21.25;;
51288;SDS011;37372;52.294;5.152;2023-05-09T07:21:44;34.50;;;20.27;;
51288;SDS011;37372;52.294;5.152;2023-05-09T07:24:10;35.60;;;21.50;;
51288;SDS011;37372;52.294;5.152;2023-05-09T07:26:36;34.75;;;21.52;;
51288;SDS011;37372;52.294;5.152;2023-05-09T07:29:05;35.25;;;20.17;;
51288;SDS011;37372;52.294;5.152;2023-05-09T07:31:34;39.22;;;22.30;;
51288;SDS011;37372;52.294;5.152;2023-05-09T07:34:00;40.55;;;22.42;;
51288;SDS011;37372;52.294;5.152;2023-05-09T07:36:26;34.58;;;21.00;;
51288;SDS011;37372;52.294;5.152;2023-05-09T07:41:48;32.95;;;20.02;;
51288;SDS011;37372;52.294;5.152;2023-05-09T07:44:13;30.02;;;20.25;;
51288;SDS011;37372;52.294;5.152;2023-05-09T07:46:46;29.45;;;20.85;;
51288;SDS011;37372;52.294;5.152;2023-05-09T07:49:12;31.05;;;21.17;;
51288;SDS011;37372;52.294;5.152;2023-05-09T07:51:40;33.10;;;21.52;;
51288;SDS011;37372;52.294;5.152;2023-05-09T07:55:11;32.95;;;20.30;;
51288;SDS011;37372;52.294;5.152;2023-05-09T07:57:37;30.15;;;19.77;;
51288;SDS011;37372;52.294;5.152;2023-05-09T08:00:04;32.72;;;19.98;;
51288;SDS011;37372;52.294;5.152;2023-05-09T08:02:31;30.55;;;19.42;;
51288;SDS011;37372;52.294;5.152;2023-05-09T08:04:57;27.75;;;19.58;;
51288;SDS011;37372;52.294;5.152;2023-05-09T08:07:22;29.38;;;20.08;;
51288;SDS011;37372;52.294;5.152;2023-05-09T08:09:47;28.55;;;19.17;;
51288;SDS011;37372;52.294;5.152;2023-05-09T08:12:13;27.48;;;18.55;;
51288;SDS011;37372;52.294;5.152;2023-05-09T08:14:38;29.13;;;18.45;;
51288;SDS011;37372;52.294;5.152;2023-05-09T08:17:08;27.35;;;18.33;;
51288;SDS011;37372;52.294;5.152;2023-05-09T08:19:36;23.98;;;16.70;;
51288;SDS011;37372;52.294;5.152;2023-05-09T08:22:15;27.55;;;17.27;;
51288;SDS011;37372;52.294;5.152;2023-05-09T08:24:42;19.63;;;14.10;;
51288;SDS011;37372;52.294;5.152;2023-05-09T08:27:08;23.80;;;15.18;;
51288;SDS011;37372;52.294;5.152;2023-05-09T08:29:36;21.58;;;15.82;;
51288;SDS011;37372;52.294;5.152;2023-05-09T08:32:21;19.70;;;14.70;;
51288;SDS011;37372;52.294;5.152;2023-05-09T08:34:47;23.52;;;16.48;;
51288;SDS011;37372;52.294;5.152;2023-05-09T08:37:12;20.02;;;14.25;;
51288;SDS011;37372;52.294;5.152;2023-05-09T08:39:38;22.58;;;13.90;;
51288;SDS011;37372;52.294;5.152;2023-05-09T08:42:03;21.88;;;13.88;;
51288;SDS011;37372;52.294;5.152;2023-05-09T08:44:29;19.20;;;12.95;;
51288;SDS011;37372;52.294;5.152;2023-05-09T08:46:59;20.55;;;14.68;;
51288;SDS011;37372;52.294;5.152;2023-05-09T08:49:29;21.33;;;14.52;;
51288;SDS011;37372;52.294;5.152;2023-05-09T08:51:55;21.27;;;15.32;;
51288;SDS011;37372;52.294;5.152;2023-05-09T08:54:22;20.85;;;13.27;;
51288;SDS011;37372;52.294;5.152;2023-05-09T08:56:49;20.00;;;13.95;;
51288;SDS011;37372;52.294;5.152;2023-05-09T08:59:16;19.67;;;13.68;;
51288;SDS011;37372;52.294;5.152;2023-05-09T09:01:46;17.75;;;12.82;;
51288;SDS011;37372;52.294;5.152;2023-05-09T09:04:12;19.45;;;13.35;;
51288;SDS011;37372;52.294;5.152;2023-05-09T09:06:57;18.67;;;12.90;;
51288;SDS011;37372;52.294;5.152;2023-05-09T09:09:24;16.98;;;11.57;;
51288;SDS011;37372;52.294;5.152;2023-05-09T09:11:51;16.00;;;11.30;;
51288;SDS011;37372;52.294;5.152;2023-05-09T09:14:19;20.05;;;12.10;;
51288;SDS011;37372;52.294;5.152;2023-05-09T09:16:49;16.38;;;11.27;;
51288;SDS011;37372;52.294;5.152;2023-05-09T09:19:17;15.07;;;11.00;;
51288;SDS011;37372;52.294;5.152;2023-05-09T09:21:44;15.00;;;10.95;;
51288;SDS011;37372;52.294;5.152;2023-05-09T09:24:16;13.50;;;10.60;;
51288;SDS011;37372;52.294;5.152;2023-05-09T09:26:56;16.92;;;12.13;;
51288;SDS011;37372;52.294;5.152;2023-05-09T09:29:21;16.55;;;11.30;;
51288;SDS011;37372;52.294;5.152;2023-05-09T09:31:52;16.70;;;13.13;;
51288;SDS011;37372;52.294;5.152;2023-05-09T09:34:21;15.15;;;11.27;;
51288;SDS011;37372;52.294;5.152;2023-05-09T09:36:48;16.02;;;11.10;;
51288;SDS011;37372;52.294;5.152;2023-05-09T09:41:48;15.55;;;10.40;;
51288;SDS011;37372;52.294;5.152;2023-05-09T09:44:19;13.98;;;10.00;;
51288;SDS011;37372;52.294;5.152;2023-05-09T09:46:47;13.18;;;10.10;;
51288;SDS011;37372;52.294;5.152;2023-05-09T09:49:24;14.52;;;10.43;;
51288;SDS011;37372;52.294;5.152;2023-05-09T09:51:51;11.32;;;8.95;;
51288;SDS011;37372;52.294;5.152;2023-05-09T09:54:18;13.40;;;9.90;;
51288;SDS011;37372;52.294;5.152;2023-05-09T09:56:45;12.27;;;10.20;;
51288;SDS011;37372;52.294;5.152;2023-05-09T09:59:33;13.00;;;8.68;;
51288;SDS011;37372;52.294;5.152;2023-05-09T10:02:05;12.20;;;9.20;;
51288;SDS011;37372;52.294;5.152;2023-05-09T10:04:36;13.48;;;9.30;;
51288;SDS011;37372;52.294;5.152;2023-05-09T10:07:07;12.00;;;9.18;;
51288;SDS011;37372;52.294;5.152;2023-05-09T10:09:37;11.27;;;9.48;;
51288;SDS011;37372;52.294;5.152;2023-05-09T10:12:03;12.90;;;9.20;;
51288;SDS011;37372;52.294;5.152;2023-05-09T10:14:31;13.23;;;10.18;;
51288;SDS011;37372;52.294;5.152;2023-05-09T10:17:06;13.50;;;9.55;;
51288;SDS011;37372;52.294;5.152;2023-05-09T10:19:36;11.65;;;9.23;;
51288;SDS011;37372;52.294;5.152;2023-05-09T10:22:07;15.15;;;10.32;;
51288;SDS011;37372;52.294;5.152;2023-05-09T10:24:38;14.93;;;9.02;;
51288;SDS011;37372;52.294;5.152;2023-05-09T10:27:14;13.52;;;10.00;;
51288;SDS011;37372;52.294;5.152;2023-05-09T10:30:12;14.98;;;10.23;;
51288;SDS011;37372;52.294;5.152;2023-05-09T10:35:11;12.48;;;9.63;;
51288;SDS011;37372;52.294;5.152;2023-05-09T10:37:38;11.52;;;8.35;;
51288;SDS011;37372;52.294;5.152;2023-05-09T10:40:04;12.00;;;9.75;;
51288;SDS011;37372;52.294;5.152;2023-05-09T10:42:34;13.70;;;9.10;;
51288;SDS011;37372;52.294;5.152;2023-05-09T10:45:00;11.20;;;8.65;;
51288;SDS011;37372;52.294;5.152;2023-05-09T10:47:26;13.30;;;8.98;;
51288;SDS011;37372;52.294;5.152;2023-05-09T10:49:53;10.27;;;8.35;;
51288;SDS011;37372;52.294;5.152;2023-05-09T10:52:22;12.13;;;9.02;;
51288;SDS011;37372;52.294;5.152;2023-05-09T10:54:57;13.38;;;8.95;;
51288;SDS011;37372;52.294;5.152;2023-05-09T10:57:28;11.43;;;8.32;;
51288;SDS011;37372;52.294;5.152;2023-05-09T10:59:58;10.23;;;8.68;;
51288;SDS011;37372;52.294;5.152;2023-05-09T11:02:24;14.98;;;8.43;;
51288;SDS011;37372;52.294;5.152;2023-05-09T11:07:39;12.93;;;8.77;;
51288;SDS011;37372;52.294;5.152;2023-05-09T11:10:14;13.93;;;8.70;;
51288;SDS011;37372;52.294;5.152;2023-05-09T11:12:52;12.45;;;8.25;;
51288;SDS011;37372;52.294;5.152;2023-05-09T11:15:19;10.43;;;7.55;;
51288;SDS011;37372;52.294;5.152;2023-05-09T11:17:45;10.80;;;6.88;;
51288;SDS011;37372;52.294;5.152;2023-05-09T11:20:28;10.60;;;7.55;;
51288;SDS011;37372;52.294;5.152;2023-05-09T11:22:54;12.27;;;7.75;;
51288;SDS011;37372;52.294;5.152;2023-05-09T11:25:26;9.32;;;8.05;;
51288;SDS011;37372;52.294;5.152;2023-05-09T11:27:57;11.02;;;8.43;;
51288;SDS011;37372;52.294;5.152;2023-05-09T11:30:33;10.98;;;7.85;;
51288;SDS011;37372;52.294;5.152;2023-05-09T11:33:05;9.20;;;7.18;;
51288;SDS011;37372;52.294;5.152;2023-05-09T11:35:31;11.38;;;8.18;;
51288;SDS011;37372;52.294;5.152;2023-05-09T11:38:08;11.23;;;7.53;;
51288;SDS011;37372;52.294;5.152;2023-05-09T11:40:33;10.32;;;7.30;;
51288;SDS011;37372;52.294;5.152;2023-05-09T11:42:59;11.25;;;7.13;;
51288;SDS011;37372;52.294;5.152;2023-05-09T11:45:27;12.70;;;7.85;;
51288;SDS011;37372;52.294;5.152;2023-05-09T11:47:54;10.90;;;7.75;;
51288;SDS011;37372;52.294;5.152;2023-05-09T11:50:38;9.00;;;7.57;;
51288;SDS011;37372;52.294;5.152;2023-05-09T11:53:05;10.75;;;8.13;;
51288;SDS011;37372;52.294;5.152;2023-05-09T11:55:37;13.50;;;8.38;;
51288;SDS011;37372;52.294;5.152;2023-05-09T11:58:05;11.02;;;7.97;;
51288;SDS011;37372;52.294;5.152;2023-05-09T12:00:31;11.50;;;8.35;;
51288;SDS011;37372;52.294;5.152;2023-05-09T12:02:57;10.38;;;7.57;;
51288;SDS011;37372;52.294;5.152;2023-05-09T12:05:23;11.38;;;7.80;;
51288;SDS011;37372;52.294;5.152;2023-05-09T12:07:48;11.10;;;6.82;;
51288;SDS011;37372;52.294;5.152;2023-05-09T12:10:16;10.65;;;7.53;;
51288;SDS011;37372;52.294;5.152;2023-05-09T12:12:48;9.85;;;7.88;;
51288;SDS011;37372;52.294;5.152;2023-05-09T12:15:15;11.13;;;6.18;;
51288;SDS011;37372;52.294;5.152;2023-05-09T12:17:42;9.63;;;7.22;;
51288;SDS011;37372;52.294;5.152;2023-05-09T12:20:09;11.07;;;7.35;;
51288;SDS011;37372;52.294;5.152;2023-05-09T12:22:41;9.38;;;7.05;;
51288;SDS011;37372;52.294;5.152;2023-05-09T12:25:17;9.57;;;7.60;;
51288;SDS011;37372;52.294;5.152;2023-05-09T12:27:50;9.57;;;7.38;;
51288;SDS011;37372;52.294;5.152;2023-05-09T12:30:18;9.25;;;7.50;;
51288;SDS011;37372;52.294;5.152;2023-05-09T12:32:43;9.23;;;7.53;;
51288;SDS011;37372;52.294;5.152;2023-05-09T12:35:10;12.15;;;8.02;;
51288;SDS011;37372;52.294;5.152;2023-05-09T12:37:37;9.40;;;7.10;;
51288;SDS011;37372;52.294;5.152;2023-05-09T12:40:10;9.27;;;7.65;;
51288;SDS011;37372;52.294;5.152;2023-05-09T12:42:41;12.23;;;8.05;;
51288;SDS011;37372;52.294;5.152;2023-05-09T12:45:12;10.50;;;7.50;;
51288;SDS011;37372;52.294;5.152;2023-05-09T12:47:38;9.63;;;7.88;;
51288;SDS011;37372;52.294;5.152;2023-05-09T12:50:05;8.50;;;6.65;;
51288;SDS011;37372;52.294;5.152;2023-05-09T12:52:34;9.60;;;7.30;;
51288;SDS011;37372;52.294;5.152;2023-05-09T12:55:06;8.20;;;6.38;;
51288;SDS011;37372;52.294;5.152;2023-05-09T12:57:33;11.18;;;7.75;;
51288;SDS011;37372;52.294;5.152;2023-05-09T13:00:06;9.77;;;7.22;;
51288;SDS011;37372;52.294;5.152;2023-05-09T13:02:37;9.20;;;7.10;;
51288;SDS011;37372;52.294;5.152;2023-05-09T13:07:39;10.82;;;6.72;;
51288;SDS011;37372;52.294;5.152;2023-05-09T13:10:23;8.73;;;6.38;;
51288;SDS011;37372;52.294;5.152;2023-05-09T13:12:55;11.38;;;6.80;;
51288;SDS011;37372;52.294;5.152;2023-05-09T13:15:21;10.90;;;6.63;;
51288;SDS011;37372;52.294;5.152;2023-05-09T13:17:58;8.82;;;6.55;;
51288;SDS011;37372;52.294;5.152;2023-05-09T13:20:23;9.38;;;5.97;;
51288;SDS011;37372;52.294;5.152;2023-05-09T13:22:49;8.30;;;6.18;;
51288;SDS011;37372;52.294;5.152;2023-05-09T13:25:18;8.45;;;6.50;;
51288;SDS011;37372;52.294;5.152;2023-05-09T13:27:44;8.88;;;6.95;;
51288;SDS011;37372;52.294;5.152;2023-05-09T13:30:10;8.25;;;6.82;;
51288;SDS011;37372;52.294;5.152;2023-05-09T13:32:42;8.77;;;6.72;;
51288;SDS011;37372;52.294;5.152;2023-05-09T13:35:07;9.63;;;6.65;;
51288;SDS011;37372;52.294;5.152;2023-05-09T13:37:45;12.10;;;7.10;;
51288;SDS011;37372;52.294;5.152;2023-05-09T13:40:11;9.32;;;6.85;;
51288;SDS011;37372;52.294;5.152;2023-05-09T13:42:37;10.30;;;6.78;;
51288;SDS011;37372;52.294;5.152;2023-05-09T13:45:04;8.93;;;6.53;;
51288;SDS011;37372;52.294;5.152;2023-05-09T13:47:30;10.43;;;6.85;;
51288;SDS011;37372;52.294;5.152;2023-05-09T13:50:03;9.15;;;5.68;;
51288;SDS011;37372;52.294;5.152;2023-05-09T13:52:28;8.32;;;6.47;;
51288;SDS011;37372;52.294;5.152;2023-05-09T13:55:15;7.55;;;6.05;;
51288;SDS011;37372;52.294;5.152;2023-05-09T13:57:41;8.63;;;6.78;;
51288;SDS011;37372;52.294;5.152;2023-05-09T14:00:23;7.07;;;6.00;;
51288;SDS011;37372;52.294;5.152;2023-05-09T14:03:02;8.65;;;6.32;;
51288;SDS011;37372;52.294;5.152;2023-05-09T14:05:31;9.55;;;6.70;;
51288;SDS011;37372;52.294;5.152;2023-05-09T14:08:07;8.50;;;6.47;;
51288;SDS011;37372;52.294;5.152;2023-05-09T14:10:33;8.30;;;6.50;;
51288;SDS011;37372;52.294;5.152;2023-05-09T14:12:58;7.53;;;6.13;;
51288;SDS011;37372;52.294;5.152;2023-05-09T14:15:23;8.50;;;6.35;;
51288;SDS011;37372;52.294;5.152;2023-05-09T14:17:49;9.85;;;5.20;;
51288;SDS011;37372;52.294;5.152;2023-05-09T14:20:19;6.15;;;4.95;;
51288;SDS011;37372;52.294;5.152;2023-05-09T14:25:28;6.45;;;5.18;;
51288;SDS011;37372;52.294;5.152;2023-05-09T14:27:54;6.60;;;5.15;;
51288;SDS011;37372;52.294;5.152;2023-05-09T14:30:19;8.88;;;5.45;;
51288;SDS011;37372;52.294;5.152;2023-05-09T14:32:48;8.85;;;5.28;;
51288;SDS011;37372;52.294;5.152;2023-05-09T14:35:15;7.50;;;5.53;;
51288;SDS011;37372;52.294;5.152;2023-05-09T14:37:51;6.25;;;4.57;;
51288;SDS011;37372;52.294;5.152;2023-05-09T14:40:18;7.32;;;5.30;;
51288;SDS011;37372;52.294;5.152;2023-05-09T14:42:48;8.27;;;4.93;;
51288;SDS011;37372;52.294;5.152;2023-05-09T14:45:29;5.90;;;4.80;;
51288;SDS011;37372;52.294;5.152;2023-05-09T14:48:07;6.43;;;4.68;;
51288;SDS011;37372;52.294;5.152;2023-05-09T14:50:33;7.45;;;5.13;;
51288;SDS011;37372;52.294;5.152;2023-05-09T14:52:59;6.97;;;5.43;;
51288;SDS011;37372;52.294;5.152;2023-05-09T14:55:26;8.45;;;4.88;;
51288;SDS011;37372;52.294;5.152;2023-05-09T14:57:52;6.35;;;4.90;;
51288;SDS011;37372;52.294;5.152;2023-05-09T15:00:18;7.10;;;5.05;;
51288;SDS011;37372;52.294;5.152;2023-05-09T15:02:44;8.30;;;5.82;;
51288;SDS011;37372;52.294;5.152;2023-05-09T15:05:16;6.85;;;6.15;;
51288;SDS011;37372;52.294;5.152;2023-05-09T15:07:42;6.80;;;5.78;;